logo
Search for airport 
image banner adimage banner adimage banner ad
image banner ad

HKNW - Nairobi Wilson

Located in Nairobi, Kenya

ICAO - HKNW, IATA - WIL

Data provided by Airmate  

General information

Coordinates: S1°19'17" E36°48'54"
Elevation is 5546 feet MSL.
Magnetic variation is 1° East
View others Airports in Nairobi Province

Operational data

Special qualification required
Current time UTC:
Current local time:
Weather
METAR: HKNW 140200Z 00000KT 9999 FEW020 BKN080 18/16 Q1021
TAF: TAF HKNW 132300Z 1400/1424 VRB02KT 9999 SCT021 BKN080 TEMPO 1401/1405 -RA SCT007 BKN017 BECMG 1408/1411 09010KT NSW BKN025 TEMPO 1413/1417 -SHRA FEW023CB BKN023 BECMG 1420/1421 VRB02KT -RA SCT020 BKN080
View NOTAMs / SUP AIP / TFR affecting this airport [VIEW]
Communications frequencies: [VIEW]

Runways:

RWY identifierQFULength (ft)Width (ft)SurfaceLDA (ft)
14135°443273ASPH4462
32315°443273ASPH5098
0771°474769ASPH4790
25251°474769ASPH5098

Airport contact information

Satellite view of HKNW